Fecha, hora, temperatura, viento dirección y velocidad, humedad y presión.

  • 20-03-2019 00:00:00 | 0.30°C | Oeste |16.00 km/h | 92.00% | 859.40 hPa
  • 19-03-2019 23:00:00 | 0.50°C | Noroeste |15.00 km/h | 89.00% | 859.30 hPa
  • 19-03-2019 22:00:00 | 0.40°C | Noroeste |13.00 km/h | 93.00% | 859.00 hPa
  • 19-03-2019 21:00:00 | 0.30°C | Noroeste |13.00 km/h | 93.00% | 858.80 hPa
  • 19-03-2019 20:00:00 | 0.60°C | Noroeste |14.00 km/h | 90.00% | 858.40 hPa
  • 19-03-2019 19:00:00 | 0.60°C | Oeste |16.00 km/h | 93.00% | 858.20 hPa
  • 19-03-2019 18:00:00 | 1.30°C | Norte |7.00 km/h | 91.00% | 857.90 hPa
  • 19-03-2019 17:00:00 | 1.30°C | Noroeste |15.00 km/h | 91.00% | 857.70 hPa
  • 19-03-2019 16:00:00 | 1.10°C | Oeste |19.00 km/h | 92.00% | 857.70 hPa
  • 19-03-2019 15:00:00 | 1.10°C | Noroeste |20.00 km/h | 92.00% | 857.40 hPa
  • 19-03-2019 14:00:00 | 1.00°C | Noroeste |18.00 km/h | 92.00% | 857.60 hPa
  • 19-03-2019 13:00:00 | 0.60°C | Noroeste |18.00 km/h | 93.00% | 857.60 hPa
  • 19-03-2019 12:00:00 | 0.30°C | Noroeste |19.00 km/h | 92.00% | 857.50 hPa
  • 19-03-2019 11:00:00 | 0.20°C | Noroeste |17.00 km/h | 92.00% | 857.40 hPa
  • 19-03-2019 10:00:00 | -0.30°C | Noroeste |17.00 km/h | 93.00% | 857.00 hPa
  • 19-03-2019 09:00:00 | -0.60°C | Noroeste |17.00 km/h | 93.00% | 856.50 hPa
  • 19-03-2019 08:00:00 | -1.10°C | Noroeste |16.00 km/h | 94.00% | 856.20 hPa
  • 19-03-2019 07:00:00 | -1.10°C | Noroeste |18.00 km/h | 93.00% | 855.90 hPa
  • 19-03-2019 06:00:00 | -1.20°C | Noroeste |16.00 km/h | 93.00% | 855.90 hPa
  • 19-03-2019 05:00:00 | -1.10°C | Noroeste |21.00 km/h | 93.00% | 855.60 hPa
  • 19-03-2019 04:00:00 | -1.20°C | Noroeste |26.00 km/h | 93.00% | 855.70 hPa
  • 19-03-2019 03:00:00 | -1.60°C | Noroeste |26.00 km/h | 93.00% | 856.00 hPa
  • 19-03-2019 02:00:00 | -1.40°C | Noroeste |24.00 km/h | 92.00% | 856.50 hPa
  • 19-03-2019 01:00:00 | -1.50°C | Noroeste |23.00 km/h | 94.00% | 856.40 hPa
    • diseño web asturias Información sobre el estado de las mareas, altura de la marejada, temperatura del agua y otros datos de Gijón en Asturias.

      Surf Gijón